This is the latest recevied weather packets stored in our database for station/object KF4WSW-13. If no packets are shown the sender has not sent any weather packets the latest 10 day(s).
| Time | Temp. | Humidity | Pressure | Rain* | Wind** | Luminosity | Snow |
|---|---|---|---|---|---|---|---|
| 1777562126 | 26.67° C | 76% | 1010.9 hPa | 0 mm | - | 330 W/m² | - |
| 1777561824 | 27.22° C | 74% | 1011.2 hPa | 0 mm | - | 234 W/m² | - |
| 1777561520 | 27.78° C | 73% | 1011 hPa | 0 mm | - | 396 W/m² | - |
| 1777561216 | 27.22° C | 74% | 1011 hPa | 0 mm | - | 702 W/m² | - |
| 1777560914 | 27.78° C | 73% | 1010.8 hPa | 0 mm | - | 734 W/m² | - |
| 1777560612 | 27.78° C | 73% | 1010.9 hPa | 0 mm | - | 497 W/m² | - |
| 1777560310 | 27.22° C | 74% | 1010.8 hPa | 0 mm | - | 687 W/m² | - |
| 1777560008 | 27.22° C | 75% | 1010.8 hPa | 0 mm | - | 530 W/m² | - |
| 1777559702 | 26.67° C | 77% | 1010.8 hPa | 0 mm | - | 643 W/m² | - |
| 1777559400 | 26.67° C | 76% | 1010.7 hPa | 0 mm | - | 293 W/m² | - |
| 1777559096 | 26.67° C | 75% | 1010.7 hPa | 0 mm | - | 236 W/m² | - |
| 1777558791 | 27.22° C | 75% | 1010.6 hPa | 0 mm | - | 261 W/m² | - |
| 1777558487 | 28.33° C | 71% | 1010.4 hPa | 0 mm | - | 350 W/m² | - |
| 1777558184 | 27.78° C | 73% | 1010.2 hPa | 0 mm | - | 641 W/m² | - |
| 1777557880 | 27.78° C | 74% | 1010.5 hPa | 0 mm | - | 524 W/m² | - |
| 1777557577 | 27.78° C | 73% | 1010.3 hPa | 0 mm | - | 484 W/m² | - |
| 1777557273 | 26.67° C | 75% | 1010.1 hPa | 0 mm | - | 470 W/m² | - |
| 1777556969 | 27.22° C | 74% | 1010.1 hPa | 0 mm | - | 449 W/m² | - |
| 1777556665 | 27.22° C | 74% | 1010.3 hPa | 0 mm | - | 441 W/m² | - |
| 1777556361 | 27.22° C | 75% | 1010.2 hPa | 0 mm | - | 423 W/m² | - |
| 1777556057 | 26.67° C | 76% | 1010.3 hPa | 0 mm | - | 423 W/m² | - |
| 1777555756 | 26.11° C | 77% | 1010.4 hPa | 0 mm | - | 386 W/m² | - |
| 1777555454 | 26.67° C | 78% | 1010.5 hPa | 0 mm | - | 423 W/m² | - |
| 1777555149 | 26.11° C | 78% | 1010.5 hPa | 0 mm | - | 289 W/m² | - |
| 1777554847 | 25.56° C | 81% | 1010.6 hPa | 0 mm | - | 231 W/m² | - |
* Rain latest hour (hover to see other rain measurements)
** Current wind speed in m/s (hover to see current wind gust speed)